Time;durP1;ratioP1;P1;durP2;ratioP2;P2;SDS_P1;SDS_P2;PMS_P1;PMS_P2;Temp;Humidity;BMP_temperature;BMP_pressure;BME280_temperature;BME280_humidity;BME280_pressure;Samples;Min_cycle;Max_cycle;Signal;HPM_P1;HPM_P2
2022/06/07 00:00:04;;;;;;;1.20;1.10;;;18.20;66.50;;;;;;4969226;28;20478;-41
2022/06/07 00:02:33;;;;;;;1.27;1.17;;;18.20;66.50;;;;;;4966923;28;20469;-41
2022/06/07 00:05:00;;;;;;;1.47;0.90;;;18.10;66.80;;;;;;4970370;28;20464;-41
2022/06/07 00:07:27;;;;;;;3.20;2.40;;;18.10;66.70;;;;;;4949977;28;20466;-41
2022/06/07 00:09:55;;;;;;;2.13;1.10;;;18.10;66.90;;;;;;4969738;28;20468;-42
2022/06/07 00:12:22;;;;;;;2.13;1.30;;;18.10;66.80;;;;;;4968196;28;20557;-42
2022/06/07 00:14:49;;;;;;;4.47;1.00;;;18.10;66.90;;;;;;4971022;28;20520;-42
2022/06/07 00:17:16;;;;;;;1.57;1.13;;;18.00;66.90;;;;;;4970034;28;20978;-42
2022/06/07 00:19:43;;;;;;;1.53;1.10;;;18.00;67.00;;;;;;4969411;28;20532;-41
2022/06/07 00:22:10;;;;;;;1.10;1.00;;;18.00;67.10;;;;;;4967701;28;20462;-41
2022/06/07 00:24:37;;;;;;;5.13;2.93;;;18.00;66.70;;;;;;4947711;28;20474;-42
2022/06/07 00:27:05;;;;;;;3.83;1.10;;;18.00;66.90;;;;;;4968115;28;20557;-41
2022/06/07 00:29:33;;;;;;;5.07;1.30;;;18.00;66.70;;;;;;4967765;28;20468;-41
2022/06/07 00:32:01;;;;;;;1.87;1.20;;;17.90;66.70;;;;;;4932946;28;20484;-41
2022/06/07 00:34:28;;;;;;;1.60;1.10;;;17.90;66.70;;;;;;4943732;28;20564;-41
2022/06/07 00:36:55;;;;;;;1.07;0.97;;;17.90;66.90;;;;;;4947728;28;20526;-41
2022/06/07 00:39:22;;;;;;;1.23;0.90;;;17.80;66.90;;;;;;4969644;28;20466;-41
2022/06/07 00:41:49;;;;;;;1.40;1.30;;;17.80;67.00;;;;;;4966238;28;20466;-41
2022/06/07 00:44:25;;;;;;;1.33;1.23;;;17.80;67.10;;;;;;4954027;28;20478;-41
2022/06/07 00:47:02;;;;;;;1.77;1.00;;;17.80;67.20;;;;;;4953349;28;20481;-41
2022/06/07 00:49:32;;;;;;;1.73;1.00;;;17.80;67.40;;;;;;4969090;28;20565;-42
2022/06/07 00:52:03;;;;;;;1.93;1.07;;;17.80;67.60;;;;;;4962303;28;20466;-42
2022/06/07 00:54:32;;;;;;;1.40;1.23;;;17.70;67.90;;;;;;4963895;28;21098;-42
2022/06/07 00:57:00;;;;;;;1.40;1.23;;;17.70;68.00;;;;;;4965488;28;20490;-42
2022/06/07 00:59:27;;;;;;;2.63;1.10;;;17.70;68.10;;;;;;4962573;28;21287;-42
2022/06/07 01:01:54;;;;;;;3.17;1.10;;;17.70;68.10;;;;;;4958687;28;21726;-42
2022/06/07 01:04:23;;;;;;;1.30;1.20;;;17.80;67.90;;;;;;4946444;28;20479;-42
2022/06/07 01:12:27;;;;;;;1.20;0.73;;;17.90;67.00;;;;;;4961537;28;20995;-41
2022/06/07 01:14:54;;;;;;;1.40;1.00;;;17.90;67.00;;;;;;4943005;28;20469;-41
2022/06/07 01:17:21;;;;;;;2.90;1.30;;;17.90;67.20;;;;;;4961542;28;20588;-42
2022/06/07 01:19:49;;;;;;;4.57;1.17;;;17.80;67.30;;;;;;4966195;28;20458;-41
2022/06/07 01:22:17;;;;;;;1.20;1.17;;;17.80;67.50;;;;;;4949364;28;20461;-41
2022/06/07 01:24:44;;;;;;;1.27;1.17;;;17.90;67.50;;;;;;4961805;28;20469;-41
2022/06/07 01:27:11;;;;;;;1.90;0.90;;;17.80;67.60;;;;;;4967004;28;20466;-42
2022/06/07 01:29:39;;;;;;;1.40;1.10;;;17.80;67.60;;;;;;4967305;28;20561;-41
2022/06/07 01:32:06;;;;;;;1.20;1.10;;;17.90;67.60;;;;;;4968068;28;20557;-41
2022/06/07 01:34:33;;;;;;;0.90;0.90;;;17.80;67.60;;;;;;4965378;28;20474;-42
2022/06/07 01:37:01;;;;;;;1.33;1.03;;;17.90;67.70;;;;;;4971243;28;20519;-41
2022/06/07 01:42:14;;;;;;;1.33;1.23;;;17.90;67.80;;;;;;4967119;28;20967;-41
2022/06/07 01:44:44;;;;;;;1.53;0.93;;;17.90;67.70;;;;;;4966398;28;20470;-41
2022/06/07 01:47:15;;;;;;;4.13;1.30;;;17.90;67.60;;;;;;4935286;28;20908;-41
2022/06/07 01:49:42;;;;;;;1.70;0.80;;;17.90;67.80;;;;;;4966006;28;20978;-41
2022/06/07 01:52:10;;;;;;;1.33;1.20;;;17.90;67.70;;;;;;4944260;28;20474;-42
2022/06/07 01:54:38;;;;;;;0.90;0.90;;;17.90;67.70;;;;;;4960404;28;20469;-42
2022/06/07 01:57:05;;;;;;;1.30;1.20;;;17.90;67.60;;;;;;4966533;28;20924;-42
2022/06/07 01:59:33;;;;;;;1.20;1.07;;;17.80;67.60;;;;;;4943747;28;20481;-42
2022/06/07 02:02:00;;;;;;;1.50;1.13;;;17.90;67.50;;;;;;4965457;28;20545;-42
2022/06/07 02:04:27;;;;;;;3.07;1.00;;;17.90;67.40;;;;;;4954131;28;20450;-42
2022/06/07 02:06:54;;;;;;;1.27;1.07;;;17.80;67.20;;;;;;4950152;28;20461;-42
2022/06/07 02:09:21;;;;;;;0.93;0.93;;;17.80;67.20;;;;;;4968708;28;21064;-42
2022/06/07 02:11:48;;;;;;;1.10;1.00;;;17.80;67.40;;;;;;4965280;28;20472;-42
2022/06/07 02:14:14;;;;;;;1.10;1.00;;;17.80;67.20;;;;;;4968319;28;20464;-43
2022/06/07 02:16:41;;;;;;;1.27;1.17;;;17.80;67.10;;;;;;4965335;28;20905;-43
2022/06/07 02:19:08;;;;;;;0.93;0.93;;;17.80;67.20;;;;;;4967497;28;21002;-43
2022/06/07 02:21:37;;;;;;;3.53;0.90;;;17.80;67.20;;;;;;4964421;28;20458;-43
2022/06/07 02:24:05;;;;;;;1.63;1.10;;;17.80;67.30;;;;;;4964613;28;20466;-43
2022/06/07 02:26:42;;;;;;;2.40;0.80;;;17.80;67.30;;;;;;4950134;28;20910;-43
2022/06/07 02:29:14;;;;;;;0.87;0.80;;;17.80;67.20;;;;;;4965955;28;20573;-42
2022/06/07 02:31:49;;;;;;;1.70;1.33;;;17.80;67.20;;;;;;4968044;28;20474;-46
2022/06/07 02:34:18;;;;;;;2.10;1.10;;;17.80;67.10;;;;;;4968122;28;20492;-43
2022/06/07 02:36:47;;;;;;;2.00;0.93;;;17.80;67.10;;;;;;4969548;28;20585;-43
2022/06/07 02:39:15;;;;;;;1.67;1.17;;;17.80;66.90;;;;;;4967134;28;20512;-42
2022/06/07 02:41:42;;;;;;;2.20;1.10;;;17.80;67.00;;;;;;4952500;28;20556;-42
2022/06/07 02:44:09;;;;;;;1.00;1.00;;;17.70;67.00;;;;;;4948038;28;20457;-43
2022/06/07 02:46:36;;;;;;;1.60;1.40;;;17.70;67.10;;;;;;4967865;28;20470;-43
2022/06/07 02:49:04;;;;;;;3.07;0.87;;;17.70;67.10;;;;;;4966473;28;20978;-43
2022/06/07 02:51:31;;;;;;;1.83;1.00;;;17.70;67.00;;;;;;4965995;28;20956;-43
2022/06/07 02:54:03;;;;;;;1.47;0.97;;;17.70;66.70;;;;;;4967377;28;20525;-43
2022/06/07 02:56:30;;;;;;;1.27;1.17;;;17.60;66.70;;;;;;4944052;28;20496;-43
2022/06/07 02:58:57;;;;;;;1.17;1.00;;;17.60;67.30;;;;;;4948318;28;20840;-42
2022/06/07 03:01:24;;;;;;;1.13;1.10;;;17.60;67.50;;;;;;4961312;28;20493;-42
2022/06/07 03:03:51;;;;;;;1.30;1.20;;;17.60;67.70;;;;;;4948894;28;20542;-42
2022/06/07 03:06:17;;;;;;;1.67;1.50;;;17.60;67.70;;;;;;4964486;28;20446;-42
2022/06/07 03:08:44;;;;;;;1.80;1.20;;;17.50;67.60;;;;;;4967625;28;20505;-42
2022/06/07 03:11:12;;;;;;;1.40;1.30;;;17.50;67.40;;;;;;4966205;28;20902;-42
2022/06/07 03:13:40;;;;;;;1.40;1.30;;;17.40;67.50;;;;;;4967653;28;20462;-43
2022/06/07 03:16:07;;;;;;;2.90;0.97;;;17.40;67.90;;;;;;4945176;28;21041;-43
2022/06/07 03:18:34;;;;;;;1.87;0.80;;;17.40;68.00;;;;;;4949020;28;20494;-43
2022/06/07 03:21:01;;;;;;;1.43;1.30;;;17.30;67.90;;;;;;4962811;28;20826;-43
2022/06/07 03:23:28;;;;;;;2.63;0.93;;;17.30;67.70;;;;;;4965443;28;20470;-43
2022/06/07 03:26:06;;;;;;;2.03;1.30;;;17.30;67.70;;;;;;4967647;28;20663;-43
2022/06/07 03:28:33;;;;;;;1.87;1.07;;;17.30;67.80;;;;;;4966173;28;20465;-43
2022/06/07 03:31:08;;;;;;;2.10;0.80;;;17.30;68.10;;;;;;4963978;28;20458;-43
2022/06/07 03:33:35;;;;;;;1.50;1.30;;;17.30;68.30;;;;;;4949224;28;20474;-43
2022/06/07 03:36:07;;;;;;;3.10;1.00;;;17.20;68.80;;;;;;4964479;28;20971;-43
2022/06/07 03:38:34;;;;;;;1.20;1.10;;;17.20;68.80;;;;;;4962271;28;20492;-43
2022/06/07 03:41:01;;;;;;;2.00;0.97;;;17.20;68.60;;;;;;4948745;28;20966;-43
2022/06/07 03:43:28;;;;;;;1.37;1.23;;;17.20;68.50;;;;;;4970502;28;20468;-43
2022/06/07 03:45:56;;;;;;;1.30;1.20;;;17.20;68.80;;;;;;4969324;28;20456;-43
2022/06/07 03:48:23;;;;;;;1.00;1.00;;;17.20;68.60;;;;;;4970290;28;20477;-43
2022/06/07 03:50:50;;;;;;;1.50;1.40;;;17.20;68.60;;;;;;4949431;28;20472;-43
2022/06/07 03:53:17;;;;;;;2.47;1.40;;;17.20;68.50;;;;;;4970629;28;20469;-43
2022/06/07 03:55:47;;;;;;;3.00;1.10;;;17.20;69.00;;;;;;4952142;28;20960;-42
2022/06/07 03:58:14;;;;;;;3.17;1.17;;;17.20;69.00;;;;;;4966260;28;20505;-42
2022/06/07 04:00:43;;;;;;;1.43;1.17;;;17.20;69.20;;;;;;4967974;28;20862;-43
2022/06/07 04:03:10;;;;;;;1.30;1.00;;;17.10;69.20;;;;;;4967981;28;20774;-43
2022/06/07 04:05:45;;;;;;;1.90;1.20;;;17.10;69.30;;;;;;4948443;28;20814;-43
2022/06/07 04:08:12;;;;;;;4.57;1.20;;;17.10;69.40;;;;;;4965242;28;20848;-43
2022/06/07 04:10:54;;;;;;;2.50;1.07;;;17.10;69.40;;;;;;4968610;28;20469;-43
2022/06/07 04:13:23;;;;;;;1.40;1.30;;;17.10;69.70;;;;;;4962581;28;20461;-43
2022/06/07 04:15:50;;;;;;;1.20;1.03;;;17.10;69.60;;;;;;4969930;28;20511;-43
2022/06/07 04:18:19;;;;;;;3.63;1.53;;;17.10;69.50;;;;;;4968775;28;20501;-42
2022/06/07 04:20:46;;;;;;;1.17;1.00;;;17.10;69.70;;;;;;4967869;28;20525;-43
2022/06/07 04:23:19;;;;;;;1.60;1.13;;;17.10;70.20;;;;;;4968676;28;20549;-42
2022/06/07 04:25:47;;;;;;;2.80;2.00;;;17.10;70.40;;;;;;4968726;28;20466;-42
2022/06/07 04:28:14;;;;;;;1.63;1.50;;;17.10;70.50;;;;;;4966260;28;20480;-42
2022/06/07 04:30:46;;;;;;;1.60;1.50;;;17.10;70.50;;;;;;4966063;28;20999;-43
2022/06/07 04:33:17;;;;;;;1.67;1.10;;;17.10;70.70;;;;;;4965105;28;20505;-42
2022/06/07 04:35:45;;;;;;;1.07;1.00;;;17.10;70.80;;;;;;4966536;28;20470;-42
2022/06/07 04:38:13;;;;;;;1.60;1.20;;;17.20;70.80;;;;;;4952538;28;20492;-42
2022/06/07 04:40:41;;;;;;;2.27;1.17;;;17.20;70.80;;;;;;4969102;28;20480;-42
2022/06/07 04:43:09;;;;;;;2.40;1.03;;;17.20;70.60;;;;;;4969721;28;20474;-42
2022/06/07 04:45:37;;;;;;;1.50;1.30;;;17.20;70.40;;;;;;4965591;28;20458;-42
2022/06/07 04:48:06;;;;;;;1.40;1.20;;;17.20;70.30;;;;;;4946922;28;20462;-42
2022/06/07 04:50:33;;;;;;;1.10;0.93;;;17.30;70.40;;;;;;4966646;28;20967;-42
2022/06/07 04:53:00;;;;;;;2.70;1.10;;;17.30;70.50;;;;;;4956786;28;20470;-42
2022/06/07 04:55:27;;;;;;;1.43;1.30;;;17.30;70.50;;;;;;4965777;28;20836;-43
2022/06/07 04:57:54;;;;;;;1.30;1.20;;;17.30;70.60;;;;;;4967491;28;20493;-43
2022/06/07 05:00:21;;;;;;;1.20;1.10;;;17.30;70.30;;;;;;4966405;28;20769;-43
2022/06/07 05:02:48;;;;;;;1.30;1.10;;;17.30;70.50;;;;;;4965894;28;20481;-43
2022/06/07 05:05:16;;;;;;;1.80;1.20;;;17.30;70.50;;;;;;4967751;28;20464;-43
2022/06/07 05:07:43;;;;;;;4.63;1.40;;;17.40;70.30;;;;;;4930230;28;20498;-43
2022/06/07 05:10:12;;;;;;;1.00;0.90;;;17.40;70.30;;;;;;4965787;28;20464;-43
2022/06/07 05:12:39;;;;;;;1.03;1.03;;;17.40;70.50;;;;;;4952997;28;20553;-43
2022/06/07 05:15:08;;;;;;;1.33;1.20;;;17.40;70.70;;;;;;4964341;28;20457;-43
2022/06/07 05:17:34;;;;;;;0.80;0.80;;;17.40;70.70;;;;;;4966602;28;20498;-43
2022/06/07 05:20:02;;;;;;;1.90;1.50;;;17.50;70.70;;;;;;4964725;28;20564;-43
2022/06/07 05:22:28;;;;;;;1.40;1.30;;;17.50;70.60;;;;;;4950291;28;20461;-43
2022/06/07 05:24:55;;;;;;;1.87;1.50;;;17.50;70.60;;;;;;4969211;28;20472;-43
2022/06/07 05:27:24;;;;;;;1.63;1.53;;;17.60;70.50;;;;;;4954046;28;20468;-43
2022/06/07 05:29:54;;;;;;;1.70;1.30;;;17.60;70.30;;;;;;4968215;28;20951;-43
2022/06/07 05:32:21;;;;;;;1.60;1.30;;;17.70;70.30;;;;;;4964254;28;20470;-43
2022/06/07 05:34:48;;;;;;;1.73;1.00;;;17.70;70.40;;;;;;4954714;28;20983;-43
2022/06/07 05:37:18;;;;;;;3.23;0.90;;;17.70;70.00;;;;;;4958502;28;20496;-43
2022/06/07 05:39:46;;;;;;;4.83;1.40;;;17.80;69.90;;;;;;4969066;28;20464;-43
2022/06/07 05:42:15;;;;;;;1.00;1.00;;;17.80;70.10;;;;;;4966715;28;20454;-43
2022/06/07 05:44:42;;;;;;;1.43;1.13;;;17.90;69.30;;;;;;4969130;28;20853;-43
2022/06/07 05:47:10;;;;;;;1.80;1.27;;;17.90;69.10;;;;;;4966643;28;20458;-43
2022/06/07 05:49:37;;;;;;;1.50;1.40;;;17.90;68.70;;;;;;4965135;28;20455;-43
2022/06/07 05:52:05;;;;;;;4.70;1.70;;;17.90;69.00;;;;;;4946594;28;20462;-43
2022/06/07 05:54:34;;;;;;;2.53;1.10;;;18.00;68.80;;;;;;4969111;28;20446;-43
2022/06/07 05:57:02;;;;;;;1.23;1.13;;;18.00;69.30;;;;;;4963959;28;20458;-43
2022/06/07 05:59:29;;;;;;;1.30;1.20;;;18.00;69.30;;;;;;4950199;28;20474;-43
2022/06/07 06:01:56;;;;;;;2.13;1.50;;;18.10;69.60;;;;;;4952638;28;20549;-43
2022/06/07 06:04:24;;;;;;;3.87;0.90;;;18.10;69.00;;;;;;4963153;28;20543;-43
2022/06/07 06:06:58;;;;;;;1.10;1.00;;;18.20;68.70;;;;;;4968197;28;20490;-43
2022/06/07 06:12:11;;;;;;;1.10;1.10;;;18.40;68.40;;;;;;4966443;28;21222;-44
2022/06/07 06:14:38;;;;;;;4.20;1.30;;;18.50;68.00;;;;;;4968364;28;20600;-45
2022/06/07 06:17:06;;;;;;;1.20;1.10;;;18.60;67.00;;;;;;4941786;28;20834;-45
2022/06/07 06:19:40;;;;;;;1.63;1.17;;;18.70;67.20;;;;;;4951491;28;20915;-45
2022/06/07 06:22:07;;;;;;;3.13;1.10;;;18.80;66.60;;;;;;4967590;28;20545;-45
2022/06/07 06:24:34;;;;;;;2.00;1.20;;;18.80;66.20;;;;;;4968905;28;21050;-44
2022/06/07 06:27:01;;;;;;;1.57;1.47;;;18.80;66.60;;;;;;4968019;28;20505;-45
2022/06/07 06:29:28;;;;;;;2.30;1.20;;;18.80;66.90;;;;;;4968794;28;20967;-45
2022/06/07 06:31:54;;;;;;;1.33;1.10;;;18.80;66.20;;;;;;4969047;28;20454;-45
2022/06/07 06:34:21;;;;;;;1.60;1.20;;;18.80;66.40;;;;;;4951591;28;21026;-45
2022/06/07 06:36:49;;;;;;;4.30;1.60;;;18.80;66.50;;;;;;4948734;28;20509;-45
2022/06/07 06:39:18;;;;;;;1.00;1.00;;;18.80;66.90;;;;;;4962173;28;20531;-45
2022/06/07 06:41:47;;;;;;;1.20;1.10;;;18.80;66.70;;;;;;4961294;28;20873;-45
2022/06/07 06:44:14;;;;;;;2.20;1.50;;;18.90;66.50;;;;;;4950403;28;20477;-43
2022/06/07 06:46:46;;;;;;;1.20;1.10;;;19.00;66.30;;;;;;4967782;28;20450;-43
2022/06/07 06:49:14;;;;;;;1.00;0.97;;;19.00;66.10;;;;;;4962527;28;20478;-43
2022/06/07 06:51:42;;;;;;;2.00;0.93;;;19.10;66.30;;;;;;4965356;28;20561;-43
2022/06/07 06:54:11;;;;;;;1.17;1.00;;;19.20;66.00;;;;;;4941870;28;20469;-43
2022/06/07 06:56:39;;;;;;;2.27;1.10;;;19.30;65.20;;;;;;4966297;28;21113;-42
2022/06/07 06:59:06;;;;;;;2.70;0.90;;;19.40;64.60;;;;;;4950165;28;21026;-44
2022/06/07 07:01:35;;;;;;;2.30;1.20;;;19.50;64.40;;;;;;4961287;28;20466;-42
2022/06/07 07:04:06;;;;;;;1.47;1.13;;;19.70;63.10;;;;;;4964778;28;20895;-42
2022/06/07 07:06:33;;;;;;;2.63;1.00;;;19.80;62.40;;;;;;4963908;28;20565;-42
2022/06/07 07:09:00;;;;;;;2.37;1.20;;;19.90;62.50;;;;;;4951568;28;20462;-42
2022/06/07 07:11:35;;;;;;;1.67;1.33;;;20.00;62.20;;;;;;4966565;28;20810;-42
2022/06/07 07:14:03;;;;;;;3.10;1.10;;;20.10;61.60;;;;;;4947097;28;20465;-46
2022/06/07 07:16:33;;;;;;;1.63;0.90;;;20.30;62.10;;;;;;4967155;28;20877;-46
2022/06/07 07:19:03;;;;;;;4.23;1.50;;;20.40;60.50;;;;;;4970148;28;20490;-43
2022/06/07 07:21:33;;;;;;;2.43;1.00;;;20.50;60.20;;;;;;4969739;28;20610;-42
2022/06/07 07:24:08;;;;;;;1.53;1.43;;;20.60;60.70;;;;;;4969323;28;20502;-42
2022/06/07 07:26:36;;;;;;;1.20;1.10;;;20.80;60.60;;;;;;4971276;28;20456;-42
2022/06/07 07:29:04;;;;;;;1.50;1.00;;;21.00;59.40;;;;;;4953909;28;20918;-42
2022/06/07 07:31:36;;;;;;;1.90;1.30;;;21.10;58.30;;;;;;4966678;28;20507;-42
2022/06/07 07:34:07;;;;;;;4.43;1.17;;;21.30;58.50;;;;;;4968584;28;20494;-42
2022/06/07 07:36:35;;;;;;;1.80;0.90;;;21.50;57.10;;;;;;4968349;28;20560;-45
2022/06/07 07:39:03;;;;;;;1.80;1.20;;;21.70;56.40;;;;;;4951582;28;21025;-45
2022/06/07 07:41:35;;;;;;;1.70;1.00;;;21.90;56.10;;;;;;4971097;28;20450;-45
2022/06/07 07:44:05;;;;;;;1.97;1.00;;;22.10;54.80;;;;;;4949273;28;21101;-46
2022/06/07 07:46:35;;;;;;;1.20;0.90;;;22.20;54.70;;;;;;4935130;28;20583;-45
2022/06/07 07:49:04;;;;;;;1.00;0.80;;;22.40;54.40;;;;;;4953836;28;20466;-45
2022/06/07 07:51:35;;;;;;;0.93;0.90;;;22.50;52.20;;;;;;4970981;28;21053;-46
2022/06/07 07:54:04;;;;;;;1.60;0.77;;;22.70;51.60;;;;;;4970155;28;20548;-46
2022/06/07 07:56:32;;;;;;;0.97;0.77;;;22.80;50.80;;;;;;4952247;28;20476;-46
2022/06/07 07:58:59;;;;;;;2.93;0.90;;;22.90;50.10;;;;;;4949973;28;20497;-46
2022/06/07 08:01:28;;;;;;;2.37;1.00;;;23.00;50.10;;;;;;4965384;28;20529;-46
2022/06/07 08:03:57;;;;;;;1.33;0.87;;;23.10;50.50;;;;;;4951598;28;20469;-46
2022/06/07 08:06:27;;;;;;;1.37;0.87;;;23.20;50.00;;;;;;4948701;28;20893;-46
2022/06/07 08:08:56;;;;;;;0.80;0.80;;;23.30;50.50;;;;;;4968281;28;20465;-47
2022/06/07 08:11:31;;;;;;;0.80;0.80;;;23.50;50.50;;;;;;4970338;28;20925;-46
2022/06/07 08:13:57;;;;;;;1.20;0.83;;;23.60;48.60;;;;;;4971046;28;20475;-46
2022/06/07 08:16:25;;;;;;;0.97;0.87;;;23.60;47.80;;;;;;4966591;28;20465;-46
2022/06/07 08:18:52;;;;;;;1.20;0.90;;;23.60;48.60;;;;;;4965200;28;20914;-46
2022/06/07 08:21:23;;;;;;;2.90;0.90;;;23.70;48.50;;;;;;4969018;28;20827;-46
2022/06/07 08:23:50;;;;;;;1.20;1.00;;;23.80;49.00;;;;;;4949950;28;20475;-46
2022/06/07 08:26:17;;;;;;;1.60;0.97;;;23.90;49.60;;;;;;4967289;28;20899;-46
2022/06/07 08:28:45;;;;;;;4.93;1.53;;;24.00;49.70;;;;;;4965516;28;20479;-46
2022/06/07 08:31:14;;;;;;;1.77;1.60;;;24.10;49.70;;;;;;4966128;28;20556;-46
2022/06/07 08:39:12;;;;;;;2.10;1.40;;;24.30;48.80;;;;;;4956707;28;20746;-46
2022/06/07 08:41:57;;;;;;;3.00;1.10;;;24.20;49.60;;;;;;4970671;28;20457;-46
2022/06/07 08:44:46;;;;;;;1.53;1.10;;;24.30;49.70;;;;;;4966616;28;20494;-46
2022/06/07 08:47:23;;;;;;;0.70;0.70;;;24.40;47.90;;;;;;4950285;28;20791;-46
2022/06/07 08:49:54;;;;;;;0.60;0.53;;;24.30;48.80;;;;;;4951500;28;20556;-46
2022/06/07 08:52:31;;;;;;;2.17;1.07;;;24.30;48.80;;;;;;4953265;28;20516;-46
2022/06/07 08:54:58;;;;;;;1.43;0.90;;;24.40;47.40;;;;;;4969434;28;20465;-46
2022/06/07 08:57:30;;;;;;;0.80;0.77;;;24.20;47.20;;;;;;4966280;28;20501;-46
2022/06/07 09:00:30;;;;;;;1.03;0.67;;;24.00;47.50;;;;;;4963327;28;20516;-46
2022/06/07 09:03:32;;;;;;;1.10;0.80;;;23.90;48.50;;;;;;4953613;28;20837;-47
2022/06/07 09:06:14;;;;;;;1.00;0.80;;;24.10;48.50;;;;;;4969702;28;20510;-46
2022/06/07 09:09:00;;;;;;;2.10;0.90;;;24.30;48.30;;;;;;4969540;28;20489;-46
2022/06/07 09:14:29;;;;;;;2.93;1.00;;;24.40;47.70;;;;;;4968647;28;20554;-46
2022/06/07 09:16:56;;;;;;;1.17;0.80;;;24.60;47.10;;;;;;4969809;28;20540;-46
2022/06/07 09:19:27;;;;;;;1.73;1.17;;;24.60;47.10;;;;;;4953701;28;20934;-46
2022/06/07 09:22:00;;;;;;;1.10;0.90;;;24.60;47.10;;;;;;4967224;28;20544;-46
2022/06/07 09:24:58;;;;;;;2.00;0.90;;;24.60;47.40;;;;;;4969426;28;20838;-46
2022/06/07 09:27:30;;;;;;;2.80;0.90;;;24.50;47.70;;;;;;4967874;28;20480;-46
2022/06/07 09:30:11;;;;;;;1.30;1.20;;;24.50;48.20;;;;;;4970083;28;20454;-46
2022/06/07 09:32:38;;;;;;;1.93;1.20;;;24.80;47.70;;;;;;4966743;28;20527;-46
2022/06/07 09:35:21;;;;;;;1.83;0.97;;;25.10;47.50;;;;;;4969802;28;21020;-46
2022/06/07 09:38:00;;;;;;;1.77;0.90;;;25.30;47.50;;;;;;4968754;28;20457;-46
2022/06/07 09:40:29;;;;;;;1.97;0.97;;;25.20;47.10;;;;;;4969236;28;20942;-46
2022/06/07 09:43:11;;;;;;;4.60;1.07;;;25.00;46.90;;;;;;4969740;28;20485;-46
2022/06/07 09:45:58;;;;;;;1.50;1.00;;;24.80;47.10;;;;;;4951219;28;20437;-46
2022/06/07 09:48:43;;;;;;;1.43;0.77;;;24.60;47.50;;;;;;4969276;28;20538;-46
2022/06/07 09:51:22;;;;;;;2.23;0.90;;;24.30;47.40;;;;;;4969211;28;20946;-46
2022/06/07 09:53:55;;;;;;;3.53;0.83;;;24.10;47.60;;;;;;4969705;28;20484;-46
2022/06/07 09:56:58;;;;;;;0.97;0.97;;;23.80;48.50;;;;;;4967619;28;20938;-46
2022/06/07 09:59:54;;;;;;;1.50;1.20;;;23.60;49.10;;;;;;4958055;28;20494;-45
2022/06/07 10:02:45;;;;;;;1.40;0.87;;;23.40;49.60;;;;;;4967992;28;21082;-46
2022/06/07 10:05:30;;;;;;;2.00;1.10;;;23.30;49.90;;;;;;4967392;28;20438;-45
2022/06/07 10:08:09;;;;;;;1.50;1.00;;;23.00;49.30;;;;;;4968969;28;20448;-45
2022/06/07 10:10:39;;;;;;;1.67;1.10;;;22.90;49.80;;;;;;4953085;28;20480;-45
2022/06/07 10:13:20;;;;;;;1.13;0.97;;;22.70;50.30;;;;;;4968195;28;20839;-46
2022/06/07 10:16:16;;;;;;;2.07;1.10;;;22.50;50.00;;;;;;4968868;28;20502;-45
2022/06/07 10:19:02;;;;;;;0.97;0.90;;;22.40;50.40;;;;;;4949162;28;20521;-46
2022/06/07 10:21:43;;;;;;;1.20;0.90;;;22.30;50.40;;;;;;4968100;28;20464;-46
2022/06/07 10:24:22;;;;;;;3.00;0.97;;;22.30;50.30;;;;;;4967007;28;20465;-46
2022/06/07 10:26:58;;;;;;;1.30;1.20;;;22.40;51.20;;;;;;4966149;28;20466;-46
2022/06/07 10:29:46;;;;;;;1.90;0.97;;;22.50;50.20;;;;;;4967443;28;20461;-46
2022/06/07 10:32:34;;;;;;;1.50;1.30;;;22.60;51.50;;;;;;4969016;28;20456;-46
2022/06/07 10:35:29;;;;;;;1.87;1.23;;;22.60;51.50;;;;;;4968619;28;20460;-46
2022/06/07 10:38:23;;;;;;;2.30;1.17;;;22.70;52.00;;;;;;4966758;28;20806;-46
2022/06/07 10:41:04;;;;;;;1.30;1.07;;;22.70;51.50;;;;;;4946400;28;20472;-46
2022/06/07 10:43:56;;;;;;;2.70;0.97;;;22.70;51.00;;;;;;4959124;28;21017;-46
2022/06/07 10:46:27;;;;;;;1.13;1.00;;;22.70;51.00;;;;;;4959166;28;21077;-46
2022/06/07 10:49:13;;;;;;;1.77;1.00;;;22.60;51.20;;;;;;4967349;28;20454;-46
2022/06/07 10:55:13;;;;;;;3.17;2.27;;;22.60;52.20;;;;;;4907226;29;20485;-46
2022/06/07 10:58:10;;;;;;;1.90;1.40;;;22.70;53.00;;;;;;4964191;28;21099;-46
2022/06/07 11:00:49;;;;;;;2.00;1.30;;;22.90;53.40;;;;;;4945809;28;20499;-46
2022/06/07 11:03:44;;;;;;;1.50;1.07;;;23.00;52.40;;;;;;4963615;28;20473;-46
2022/06/07 11:09:43;;;;;;;1.77;1.10;;;23.20;52.30;;;;;;4867514;29;20510;-46
2022/06/07 11:12:22;;;;;;;1.47;1.10;;;23.20;52.40;;;;;;4949101;28;20473;-46
2022/06/07 11:14:58;;;;;;;2.23;1.03;;;23.20;51.60;;;;;;4964009;28;20523;-46
2022/06/07 11:17:44;;;;;;;1.40;1.10;;;23.10;50.30;;;;;;4962021;28;20970;-45
2022/06/07 11:20:24;;;;;;;1.73;1.10;;;23.10;51.30;;;;;;4966354;28;21040;-46
2022/06/07 11:23:13;;;;;;;1.73;1.17;;;23.20;50.60;;;;;;4963907;28;20457;-46
2022/06/07 11:26:08;;;;;;;1.30;1.20;;;23.20;51.60;;;;;;4967102;28;20463;-46
2022/06/07 11:28:41;;;;;;;1.60;1.00;;;23.20;51.30;;;;;;4946751;28;20544;-46
2022/06/07 11:31:40;;;;;;;1.33;0.90;;;23.20;50.40;;;;;;4959658;28;21068;-46
2022/06/07 11:34:34;;;;;;;1.43;1.20;;;23.10;51.60;;;;;;4964106;28;20458;-46
2022/06/07 11:37:08;;;;;;;1.90;1.23;;;23.20;51.70;;;;;;4966352;28;20468;-46
2022/06/07 11:39:38;;;;;;;1.87;0.90;;;23.30;51.30;;;;;;4965201;28;20497;-46
2022/06/07 11:42:10;;;;;;;2.63;0.90;;;23.40;50.50;;;;;;4962258;28;20466;-46
2022/06/07 11:44:46;;;;;;;1.40;1.10;;;23.50;49.70;;;;;;4963393;28;20468;-46
2022/06/07 11:47:14;;;;;;;1.50;0.83;;;23.60;48.70;;;;;;4942611;28;20504;-46
2022/06/07 11:49:59;;;;;;;1.33;0.80;;;23.60;48.80;;;;;;4964805;28;20461;-46
2022/06/07 11:52:30;;;;;;;1.30;0.80;;;23.70;49.30;;;;;;4949521;28;20951;-46
2022/06/07 11:55:15;;;;;;;1.43;1.17;;;23.80;49.60;;;;;;4962694;28;21060;-46
2022/06/07 11:57:56;;;;;;;4.20;0.90;;;23.90;50.20;;;;;;4964878;28;20469;-46
2022/06/07 12:00:23;;;;;;;1.47;1.13;;;24.00;47.80;;;;;;4964552;28;21119;-46
2022/06/07 12:03:02;;;;;;;2.70;1.03;;;23.90;47.90;;;;;;4966908;28;20465;-46
2022/06/07 12:05:36;;;;;;;1.10;0.90;;;23.90;49.50;;;;;;4967933;28;20461;-46
2022/06/07 12:08:28;;;;;;;1.60;1.13;;;23.90;49.50;;;;;;4950913;28;20457;-46
2022/06/07 12:11:07;;;;;;;1.10;1.00;;;24.00;49.50;;;;;;4967037;28;21039;-46
2022/06/07 12:13:52;;;;;;;3.03;1.07;;;24.00;49.70;;;;;;4968723;28;21013;-46
2022/06/07 12:16:39;;;;;;;1.10;1.00;;;24.00;50.10;;;;;;4960916;28;20465;-46
2022/06/07 12:19:21;;;;;;;1.23;1.00;;;24.10;50.40;;;;;;4963803;28;21147;-46
2022/06/07 12:22:18;;;;;;;4.47;1.47;;;24.10;51.10;;;;;;4966742;28;20470;-46
2022/06/07 12:24:55;;;;;;;2.20;0.93;;;24.20;50.50;;;;;;4961529;28;20854;-46
2022/06/07 12:27:44;;;;;;;1.53;1.10;;;24.20;49.30;;;;;;4966323;28;20484;-46
2022/06/07 12:30:31;;;;;;;1.87;1.30;;;24.20;49.70;;;;;;4949713;28;20893;-46
2022/06/07 12:33:21;;;;;;;3.60;0.90;;;24.30;49.70;;;;;;4963754;28;21356;-46
2022/06/07 12:35:54;;;;;;;1.03;0.90;;;24.30;49.60;;;;;;4965321;28;20964;-46
2022/06/07 12:38:21;;;;;;;1.70;1.10;;;24.30;49.00;;;;;;4959753;28;20504;-46
2022/06/07 12:40:52;;;;;;;1.87;1.43;;;24.30;49.30;;;;;;4964053;28;21031;-46
2022/06/07 12:43:29;;;;;;;2.60;0.80;;;24.30;48.90;;;;;;4963484;28;20460;-47
2022/06/07 12:46:07;;;;;;;1.73;1.53;;;24.20;48.80;;;;;;4966090;28;20815;-46
2022/06/07 12:48:39;;;;;;;1.20;0.80;;;24.20;49.30;;;;;;4967488;28;20504;-46
2022/06/07 12:51:39;;;;;;;2.47;1.47;;;24.10;49.60;;;;;;4968828;28;20465;-46
2022/06/07 12:54:19;;;;;;;1.10;1.00;;;24.10;49.70;;;;;;4917132;28;20556;-46
2022/06/07 12:56:48;;;;;;;1.33;1.23;;;24.10;50.30;;;;;;4969548;28;20982;-46
2022/06/07 12:59:40;;;;;;;1.70;1.20;;;24.10;49.80;;;;;;4965511;28;21040;-46
2022/06/07 13:02:17;;;;;;;3.43;1.40;;;24.20;50.40;;;;;;4951392;28;21188;-46
2022/06/07 13:05:00;;;;;;;1.47;1.37;;;24.20;50.00;;;;;;4968771;28;20544;-46
2022/06/07 13:07:31;;;;;;;1.83;1.30;;;24.30;48.70;;;;;;4965254;28;20552;-47
2022/06/07 13:10:20;;;;;;;1.63;1.10;;;24.30;48.40;;;;;;4967764;28;20918;-46
2022/06/07 13:12:59;;;;;;;1.37;1.10;;;24.40;49.00;;;;;;4958886;28;20488;-46
2022/06/07 13:15:25;;;;;;;1.47;1.17;;;24.50;49.10;;;;;;4963581;28;20461;-46
2022/06/07 13:17:55;;;;;;;1.17;1.00;;;24.50;49.40;;;;;;4964224;28;20559;-46
2022/06/07 13:20:32;;;;;;;1.23;1.00;;;24.60;49.20;;;;;;4950295;28;21002;-46
2022/06/07 13:22:59;;;;;;;1.37;1.27;;;24.60;49.30;;;;;;4950295;28;20596;-46
2022/06/07 13:25:32;;;;;;;1.40;1.27;;;24.60;50.20;;;;;;4965831;28;20961;-46
2022/06/07 13:28:13;;;;;;;1.40;1.30;;;24.70;51.00;;;;;;4963369;28;20516;-47
2022/06/07 13:30:43;;;;;;;1.17;1.00;;;24.70;50.80;;;;;;4969649;28;20967;-46
2022/06/07 13:33:16;;;;;;;2.57;1.13;;;24.70;50.10;;;;;;4963947;28;20464;-46
2022/06/07 13:35:57;;;;;;;2.30;1.00;;;24.70;49.60;;;;;;4968406;28;21041;-46
2022/06/07 13:38:41;;;;;;;2.40;1.10;;;24.60;49.60;;;;;;4945490;28;21042;-46
2022/06/07 13:41:11;;;;;;;1.37;1.07;;;24.60;49.90;;;;;;4968760;28;20899;-47